»·PEaware :: N921VN KAPV-KBFL

N921VN :: KAPV-KBFL

FLIGHT INFORMATION

Flight Status: Arrived
Operator: Privately registered:
United States
More flights under this callsign
Pilot: Kevin M. (7)
Aircraft: BEECH AIRCRAFT BARON
(BE58)
More flights by this aircraft type
Origin: KAPV Apple Valley
United States
Destination: KBFL Meadows
United States
More flights between these airports :: More routes between these airports
Route:
File this flight plan on PilotEdge
Remarks: Alphabet challenge leg 1
Altitude:
(Current/Filed)
8,500ft
Speed:
(Current/Filed)
150kts
Departed: 29-Oct-19 09:28 AM
Arrived: 29-Oct-19 10:13 AM
Distance/Time
Traveled:
105nm/0:45
Distance/Time
To Go:
Arrived

Flight Plot

Page will automatically refresh every two minutes.


Map Options




Map Legend


Flown Route
Filed Route
Departure Airport
Arrival Airport
Navaid (VOR, NDB)
Fix

Horizontal Profiles

Position Reports

Time Latitude Longitude Heading Altitude Ground
Speed
29-Oct-19 09:15 34.574014 -117.189568 269 2976ft 0kts
29-Oct-19 09:16 34.574014 -117.189568 269 2976ft 0kts
29-Oct-19 09:18 34.573303 -117.189004 156 2975ft 6kts
29-Oct-19 09:19 34.571627 -117.189477 196 2967ft 3kts
29-Oct-19 09:20 34.570812 -117.189605 142 2964ft 0kts
29-Oct-19 09:21 34.570812 -117.189605 142 2964ft 0kts
29-Oct-19 09:22 34.571556 -117.189522 16 2966ft 9kts
29-Oct-19 09:23 34.575078 -117.188292 17 2982ft 5kts
29-Oct-19 09:24 34.578005 -117.187268 13 2999ft 11kts
29-Oct-19 09:25 34.581590 -117.186023 16 3018ft 17kts
29-Oct-19 09:26 34.586533 -117.184303 15 3051ft 15kts
29-Oct-19 09:27 34.587638 -117.183439 107 3058ft 7kts
29-Oct-19 09:28 34.570275 -117.189044 208 3530ft 119kts
29-Oct-19 09:29 34.567824 -117.225648 280 5284ft 121kts
29-Oct-19 09:30 34.578419 -117.276575 280 5703ft 165kts
29-Oct-19 09:31 34.590679 -117.328681 283 6668ft 155kts
29-Oct-19 09:32 34.605925 -117.374616 297 7898ft 138kts
29-Oct-19 09:33 34.628802 -117.414672 302 8506ft 159kts
29-Oct-19 09:34 34.647895 -117.467363 280 8229ft 178kts
29-Oct-19 09:35 34.660045 -117.522502 283 8469ft 173kts
29-Oct-19 09:36 34.667803 -117.580188 271 8444ft 172kts
29-Oct-19 09:37 34.668714 -117.638961 279 8424ft 170kts
29-Oct-19 09:38 34.681504 -117.694598 284 8449ft 170kts
29-Oct-19 09:38 34.695291 -117.739133 290 8448ft 172kts
29-Oct-19 09:39 34.696297 -117.794835 250 8479ft 172kts
29-Oct-19 09:41 34.667149 -117.855528 244 8313ft 180kts
29-Oct-19 09:41 34.646910 -117.898916 251 8387ft 175kts
29-Oct-19 09:42 34.636539 -117.956000 266 8372ft 173kts
29-Oct-19 09:44 34.630036 -118.023968 262 8378ft 175kts
29-Oct-19 09:44 34.620723 -118.071377 258 8417ft 176kts
29-Oct-19 09:45 34.625176 -118.124988 310 8281ft 174kts
29-Oct-19 09:46 34.664060 -118.158720 327 8428ft 170kts
29-Oct-19 09:47 34.705942 -118.186579 322 8503ft 170kts
29-Oct-19 09:48 34.745396 -118.217184 335 8644ft 175kts
29-Oct-19 09:49 34.792517 -118.234661 338 8574ft 180kts
29-Oct-19 09:50 34.835551 -118.259533 310 8556ft 172kts
29-Oct-19 09:51 34.861388 -118.314616 297 7714ft 168kts
29-Oct-19 09:52 34.885335 -118.363350 297 7830ft 170kts
29-Oct-19 09:53 34.906319 -118.409324 297 8717ft 143kts
29-Oct-19 09:54 34.927546 -118.457757 314 8191ft 181kts
29-Oct-19 09:55 34.965629 -118.494939 303 8186ft 171kts
29-Oct-19 09:56 34.991774 -118.542035 303 8482ft 171kts
29-Oct-19 09:57 35.015860 -118.595204 299 8212ft 186kts
29-Oct-19 09:58 35.041083 -118.649749 303 7993ft 188kts
29-Oct-19 09:59 35.062030 -118.704681 295 8191ft 178kts
29-Oct-19 10:00 35.088426 -118.760589 303 7693ft 189kts
29-Oct-19 10:01 35.118755 -118.824679 298 5447ft 225kts
29-Oct-19 10:02 35.148218 -118.879342 310 5760ft 183kts
29-Oct-19 10:03 35.178065 -118.916740 300 7315ft 143kts
29-Oct-19 10:04 35.221068 -118.926789 350 7783ft 181kts
29-Oct-19 10:05 35.214019 -118.966831 169 7323ft 201kts
29-Oct-19 10:06 35.221685 -118.925420 359 4479ft 263kts
29-Oct-19 10:07 35.285016 -118.939439 342 3938ft 196kts
29-Oct-19 10:08 35.336172 -118.962032 344 3923ft 207kts
29-Oct-19 10:09 35.380859 -118.993536 315 1702ft 153kts
29-Oct-19 10:10 35.406212 -119.023262 315 1171ft 125kts
29-Oct-19 10:11 35.428763 -119.050363 316 573ft 91kts
29-Oct-19 10:12 35.440556 -119.063054 38 499ft 13kts
29-Oct-19 10:13 35.436715 -119.057434 134 494ft 24kts
29-Oct-19 10:14 35.432464 -119.052254 135 494ft 21kts
29-Oct-19 10:15 35.429644 -119.047361 57 495ft 8kts
29-Oct-19 10:16 35.428364 -119.045342 133 493ft 0kts
29-Oct-19 10:17 35.428364 -119.045342 133 493ft 0kts
29-Oct-19 10:18 35.428364 -119.045342 133 493ft 0kts

Navigation Log

Ident Type
Flight plan parsing failed, navigation log unavailable